createdAt,value
2022-12-05T00:01:22.072Z,17.70
2022-12-05T00:03:51.462Z,16.83
2022-12-05T00:06:18.760Z,18.50
2022-12-05T00:08:46.553Z,18.57
2022-12-05T00:11:23.175Z,18.77
2022-12-05T00:13:50.489Z,17.63
2022-12-05T00:16:19.606Z,18.13
2022-12-05T00:18:46.814Z,18.43
2022-12-05T00:21:24.689Z,18.80
2022-12-05T00:23:53.169Z,20.03
2022-12-05T00:26:21.045Z,19.87
2022-12-05T00:28:47.941Z,18.63
2022-12-05T00:31:20.675Z,18.23
2022-12-05T00:33:48.531Z,17.33
2022-12-05T00:36:19.041Z,18.30
2022-12-05T00:38:46.002Z,18.53
2022-12-05T00:41:15.687Z,18.53
2022-12-05T00:43:43.024Z,17.37
2022-12-05T00:46:13.960Z,16.63
2022-12-05T00:48:41.256Z,18.20
2022-12-05T00:51:09.395Z,16.23
2022-12-05T00:53:36.829Z,17.60
2022-12-05T00:56:10.019Z,17.47
2022-12-05T00:58:37.796Z,17.33
2022-12-05T01:01:15.984Z,16.73
2022-12-05T01:03:44.254Z,17.50
2022-12-05T01:06:12.152Z,16.47
2022-12-05T01:08:39.203Z,16.40
2022-12-05T01:11:08.051Z,16.37
2022-12-05T01:13:36.093Z,16.20
2022-12-05T01:16:03.284Z,16.30
2022-12-05T01:18:30.275Z,16.40
2022-12-05T01:20:57.371Z,16.57
2022-12-05T01:23:24.192Z,16.60
2022-12-05T01:25:52.648Z,15.50
2022-12-05T01:28:19.596Z,16.13
2022-12-05T01:30:49.331Z,16.13
2022-12-05T01:33:16.646Z,15.63
2022-12-05T01:35:44.112Z,15.50
2022-12-05T01:38:12.827Z,15.27
2022-12-05T01:40:40.523Z,15.50
2022-12-05T01:43:15.243Z,16.90
2022-12-05T01:45:44.507Z,15.77
2022-12-05T01:48:21.823Z,15.00
2022-12-05T01:50:50.838Z,16.17
2022-12-05T01:53:18.413Z,15.53
2022-12-05T01:55:47.951Z,15.47
2022-12-05T01:58:16.369Z,16.50
2022-12-05T02:00:44.008Z,15.37
2022-12-05T02:03:18.221Z,15.73
2022-12-05T02:05:48.513Z,15.27
2022-12-05T02:08:15.775Z,16.00
2022-12-05T02:10:46.576Z,14.77
2022-12-05T02:13:34.503Z,15.23
2022-12-05T02:16:19.714Z,14.63
2022-12-05T02:18:56.367Z,15.87
2022-12-05T02:21:51.874Z,16.17
2022-12-05T02:24:44.009Z,16.33
2022-12-05T02:27:20.134Z,15.20
2022-12-05T02:29:50.046Z,15.27
2022-12-05T02:32:35.368Z,15.60
2022-12-05T02:35:18.250Z,15.30
2022-12-05T02:37:58.813Z,15.97
2022-12-05T02:40:41.662Z,16.53
2022-12-05T02:43:15.509Z,15.63
2022-12-05T02:45:45.190Z,15.80
2022-12-05T02:48:14.199Z,15.67
2022-12-05T02:50:42.521Z,14.97
2022-12-05T02:53:13.220Z,15.87
2022-12-05T02:55:42.179Z,15.97
2022-12-05T02:58:27.992Z,16.50
2022-12-05T03:00:57.380Z,15.77
2022-12-05T03:03:25.492Z,17.40
2022-12-05T03:06:26.653Z,15.80
2022-12-05T03:09:10.737Z,15.77
2022-12-05T03:11:52.390Z,15.83
2022-12-05T03:14:42.327Z,15.53
2022-12-05T03:17:16.308Z,16.30
2022-12-05T03:20:10.912Z,16.23
2022-12-05T03:23:00.446Z,15.53
2022-12-05T03:26:00.048Z,14.70
2022-12-05T03:28:35.653Z,15.63
2022-12-05T03:31:09.449Z,15.47
2022-12-05T03:33:44.567Z,15.63
2022-12-05T03:36:23.209Z,15.33
2022-12-05T03:38:53.253Z,16.47
2022-12-05T03:41:35.984Z,16.67
2022-12-05T03:44:26.047Z,17.13
2022-12-05T03:46:55.715Z,17.63
2022-12-05T03:49:33.478Z,16.53
2022-12-05T03:52:16.040Z,16.37
2022-12-05T03:54:47.253Z,16.03
2022-12-05T03:57:18.362Z,16.27
2022-12-05T03:59:47.115Z,15.83
2022-12-05T04:02:24.822Z,15.67
2022-12-05T04:04:58.637Z,15.83
2022-12-05T04:07:30.176Z,16.00
2022-12-05T04:10:00.356Z,15.33
2022-12-05T04:12:31.282Z,15.83
2022-12-05T04:15:03.902Z,16.57
2022-12-05T04:17:56.571Z,15.67
2022-12-05T04:20:53.528Z,15.27
2022-12-05T04:23:20.798Z,16.67
2022-12-05T04:26:03.286Z,16.00
2022-12-05T04:28:51.710Z,16.63
2022-12-05T04:31:25.187Z,16.13
2022-12-05T04:34:05.312Z,16.77
2022-12-05T04:36:50.372Z,16.70
2022-12-05T04:39:45.407Z,16.63
2022-12-05T04:42:18.269Z,15.97
2022-12-05T04:44:53.857Z,17.23
2022-12-05T04:47:24.856Z,16.87
2022-12-05T04:49:53.930Z,17.80
2022-12-05T04:52:22.510Z,18.20
2022-12-05T04:54:59.192Z,17.63
2022-12-05T04:57:33.539Z,17.97
2022-12-05T05:00:00.817Z,17.67
2022-12-05T05:02:38.193Z,16.83
2022-12-05T05:05:13.972Z,18.20
2022-12-05T05:07:49.300Z,17.03
2022-12-05T05:10:21.808Z,18.53
2022-12-05T05:12:50.473Z,19.03
2022-12-05T05:15:17.273Z,17.97
2022-12-05T05:17:44.029Z,17.40
2022-12-05T05:20:27.238Z,15.93
2022-12-05T05:22:55.993Z,17.27
2022-12-05T05:25:24.235Z,17.57
2022-12-05T05:27:53.093Z,17.27
2022-12-05T05:30:21.628Z,17.90
2022-12-05T05:32:48.979Z,18.23
2022-12-05T05:35:16.137Z,17.60
2022-12-05T05:37:43.032Z,17.70
2022-12-05T05:40:12.126Z,17.70
2022-12-05T05:42:44.036Z,16.70
2022-12-05T05:45:12.052Z,17.43
2022-12-05T05:47:40.387Z,18.13
2022-12-05T05:50:08.443Z,17.20
2022-12-05T05:52:37.294Z,17.03
2022-12-05T05:55:06.221Z,17.70
2022-12-05T05:57:33.052Z,17.27
2022-12-05T06:00:00.130Z,17.03
2022-12-05T06:02:32.620Z,17.13
2022-12-05T06:04:59.423Z,17.20
2022-12-05T06:07:26.458Z,18.10
2022-12-05T06:09:53.324Z,18.27
2022-12-05T06:12:20.100Z,19.67
2022-12-05T06:14:49.932Z,18.97
2022-12-05T06:17:17.331Z,18.10
2022-12-05T06:19:44.108Z,17.93
2022-12-05T06:22:10.969Z,18.97
2022-12-05T06:24:38.344Z,23.60
2022-12-05T06:27:05.309Z,17.60
2022-12-05T06:29:34.108Z,18.67
2022-12-05T06:32:01.738Z,18.43
2022-12-05T06:34:29.254Z,18.67
2022-12-05T06:36:55.955Z,17.70
2022-12-05T06:39:23.138Z,16.50
2022-12-05T06:41:49.928Z,16.07
2022-12-05T06:44:16.814Z,16.00
2022-12-05T06:46:43.587Z,16.67
2022-12-05T06:49:11.040Z,15.23
2022-12-05T06:51:37.808Z,16.70
2022-12-05T06:54:04.972Z,17.23
2022-12-05T06:56:31.729Z,16.97
2022-12-05T06:58:58.462Z,15.83
2022-12-05T07:01:43.803Z,17.20
2022-12-05T07:04:25.317Z,16.63
2022-12-05T07:06:54.398Z,18.13
2022-12-05T07:09:43.963Z,16.20
2022-12-05T07:12:11.749Z,15.50
2022-12-05T07:14:47.713Z,17.30
2022-12-05T07:17:16.280Z,15.57
2022-12-05T07:19:43.144Z,16.47
2022-12-05T07:22:15.512Z,16.73
2022-12-05T07:24:42.872Z,15.83
2022-12-05T07:27:09.665Z,16.83
2022-12-05T07:29:36.456Z,15.77
2022-12-05T07:32:03.576Z,15.73
2022-12-05T07:34:30.556Z,17.33
2022-12-05T07:36:57.380Z,16.40
2022-12-05T07:39:24.187Z,16.30
2022-12-05T07:41:51.110Z,17.07
2022-12-05T07:44:18.173Z,16.23
2022-12-05T07:46:45.317Z,14.23
2022-12-05T07:49:12.143Z,14.07
2022-12-05T07:51:39.082Z,14.83
2022-12-05T07:54:06.892Z,14.33
2022-12-05T07:56:34.255Z,14.53
2022-12-05T07:59:01.761Z,12.37
2022-12-05T08:01:29.935Z,13.77
2022-12-05T08:04:00.514Z,14.43
2022-12-05T08:06:30.261Z,13.00
2022-12-05T08:08:58.044Z,14.57
2022-12-05T08:11:27.611Z,13.93
2022-12-05T08:13:54.705Z,12.93
2022-12-05T08:16:23.999Z,13.23
2022-12-05T08:18:55.843Z,13.13
2022-12-05T08:21:22.679Z,13.37
2022-12-05T08:23:49.649Z,14.17
2022-12-05T08:26:20.480Z,13.07
2022-12-05T08:28:51.725Z,13.33
2022-12-05T08:31:20.411Z,13.07
2022-12-05T08:33:47.245Z,13.50
2022-12-05T08:36:18.379Z,12.73
2022-12-05T08:38:47.098Z,12.30
2022-12-05T08:41:17.894Z,13.03
2022-12-05T08:43:45.351Z,13.33
2022-12-05T08:46:12.593Z,13.83
2022-12-05T08:48:39.352Z,13.13
2022-12-05T08:51:11.514Z,12.43
2022-12-05T08:53:44.036Z,12.73
2022-12-05T08:56:15.339Z,13.13
2022-12-05T08:58:42.486Z,13.27
2022-12-05T09:01:15.324Z,12.60
2022-12-05T09:03:47.565Z,12.83
2022-12-05T09:06:19.562Z,13.30
2022-12-05T09:08:47.019Z,12.03
2022-12-05T09:11:20.141Z,12.10
2022-12-05T09:13:51.556Z,12.83
2022-12-05T09:16:22.679Z,13.60
2022-12-05T09:18:51.338Z,11.67
2022-12-05T09:21:26.233Z,12.07
2022-12-05T09:23:53.919Z,12.17
2022-12-05T09:26:23.507Z,12.93
2022-12-05T09:28:51.815Z,11.17
2022-12-05T09:31:27.041Z,11.57
2022-12-05T09:33:54.711Z,11.17
2022-12-05T09:36:26.815Z,11.33
2022-12-05T09:39:04.416Z,9.23
2022-12-05T09:42:05.029Z,10.07
2022-12-05T09:44:51.354Z,9.67
2022-12-05T09:47:56.353Z,9.33
2022-12-05T09:50:29.891Z,9.03
2022-12-05T09:53:05.709Z,9.63
2022-12-05T09:55:41.982Z,9.07
2022-12-05T09:58:52.125Z,9.40
2022-12-05T10:01:24.140Z,10.13
2022-12-05T10:04:06.522Z,8.77
2022-12-05T10:06:44.125Z,10.00
2022-12-05T10:09:22.831Z,9.83
2022-12-05T10:12:05.342Z,9.90
2022-12-05T10:14:52.620Z,9.83
2022-12-05T10:17:33.547Z,9.93
2022-12-05T10:20:11.939Z,9.20
2022-12-05T10:22:53.287Z,10.33
2022-12-05T10:25:22.763Z,9.30
2022-12-05T10:28:00.017Z,9.43
2022-12-05T10:30:33.602Z,10.37
2022-12-05T10:33:09.671Z,10.07
2022-12-05T10:35:39.318Z,10.70
2022-12-05T10:38:31.339Z,9.50
2022-12-05T10:41:01.483Z,9.77
2022-12-05T10:43:33.359Z,10.30
2022-12-05T10:46:01.123Z,8.93
2022-12-05T10:48:31.445Z,9.43
2022-12-05T10:50:58.755Z,10.13
2022-12-05T10:53:29.170Z,10.30
2022-12-05T10:56:28.762Z,8.77
2022-12-05T10:58:56.569Z,9.30
2022-12-05T11:01:26.246Z,9.43
2022-12-05T11:04:00.637Z,9.57
2022-12-05T11:06:30.515Z,10.80
2022-12-05T11:09:04.704Z,8.70
2022-12-05T11:11:33.687Z,8.70
2022-12-05T11:14:22.137Z,9.57
2022-12-05T11:16:54.824Z,9.27
2022-12-05T11:19:21.591Z,9.00
2022-12-05T11:21:50.123Z,9.50
2022-12-05T11:24:34.070Z,9.33
2022-12-05T11:27:27.381Z,9.10
2022-12-05T11:29:58.949Z,9.20
2022-12-05T11:32:30.358Z,9.53
2022-12-05T11:34:57.330Z,8.53
2022-12-05T11:37:31.519Z,8.50
2022-12-05T11:40:38.487Z,8.90
2022-12-05T11:43:24.042Z,8.63
2022-12-05T11:46:05.845Z,8.40
2022-12-05T11:48:50.499Z,9.63
2022-12-05T11:51:35.666Z,8.97
2022-12-05T11:54:35.557Z,9.43
2022-12-05T11:57:26.828Z,8.83
2022-12-05T12:00:05.507Z,8.67
2022-12-05T12:02:50.333Z,8.43
2022-12-05T12:05:55.058Z,7.77
2022-12-05T12:08:57.008Z,8.30
2022-12-05T12:11:40.084Z,7.93
2022-12-05T12:14:22.089Z,10.00
2022-12-05T12:17:04.337Z,10.13
2022-12-05T12:20:09.794Z,8.27
2022-12-05T12:22:50.832Z,8.37
2022-12-05T12:25:56.715Z,8.83
2022-12-05T12:28:45.854Z,8.53
2022-12-05T12:31:12.711Z,8.50
2022-12-05T12:34:18.698Z,8.77
2022-12-05T12:37:00.571Z,9.03
2022-12-05T12:39:39.666Z,7.57
2022-12-05T12:42:35.222Z,8.60
2022-12-05T12:45:26.956Z,9.10
2022-12-05T12:48:23.199Z,9.17
2022-12-05T12:50:54.082Z,8.27
2022-12-05T12:53:20.887Z,8.40
2022-12-05T12:56:11.600Z,7.97
2022-12-05T12:58:43.677Z,8.93
2022-12-05T13:01:22.553Z,8.33
2022-12-05T13:04:05.869Z,8.20
2022-12-05T13:06:40.949Z,8.10
2022-12-05T13:09:27.022Z,8.00
2022-12-05T13:11:56.397Z,8.87
2022-12-05T13:14:25.880Z,8.43
2022-12-05T13:16:54.715Z,8.43
2022-12-05T13:19:30.583Z,9.40
2022-12-05T13:22:01.422Z,9.00
2022-12-05T13:24:28.874Z,9.20
2022-12-05T13:27:05.141Z,9.03
2022-12-05T13:29:34.916Z,7.57
2022-12-05T13:32:04.404Z,7.77
2022-12-05T13:34:47.148Z,7.57
2022-12-05T13:37:47.308Z,7.70
2022-12-05T13:40:54.290Z,7.70
2022-12-05T13:43:25.752Z,7.37
2022-12-05T13:46:07.779Z,7.67
2022-12-05T13:48:38.661Z,7.60
2022-12-05T13:51:20.838Z,7.43
2022-12-05T13:53:50.375Z,8.23
2022-12-05T13:56:19.877Z,8.37
2022-12-05T13:59:04.723Z,7.83
2022-12-05T14:01:53.818Z,7.70
2022-12-05T14:04:40.957Z,7.77
2022-12-05T14:07:10.730Z,8.63
2022-12-05T14:09:55.199Z,8.50
2022-12-05T14:12:29.773Z,8.57
2022-12-05T14:15:01.608Z,8.63
2022-12-05T14:17:41.296Z,8.83
2022-12-05T14:20:19.974Z,8.17
2022-12-05T14:22:57.898Z,8.33
2022-12-05T14:26:02.112Z,8.70
2022-12-05T14:28:56.694Z,9.07
2022-12-05T14:32:04.401Z,9.53
2022-12-05T14:34:34.948Z,9.80
2022-12-05T14:37:18.769Z,9.53
2022-12-05T14:39:50.169Z,9.70
2022-12-05T14:42:21.806Z,10.40
2022-12-05T14:44:54.931Z,10.77
2022-12-05T14:47:25.626Z,9.60
2022-12-05T14:49:54.598Z,10.17
2022-12-05T14:52:27.094Z,9.50
2022-12-05T14:55:03.333Z,9.77
2022-12-05T14:57:35.053Z,10.20
2022-12-05T15:00:07.158Z,9.07
2022-12-05T15:02:40.231Z,10.63
2022-12-05T15:05:31.382Z,10.07
2022-12-05T15:08:00.176Z,9.93
2022-12-05T15:10:34.960Z,9.20
2022-12-05T15:13:27.814Z,9.00
2022-12-05T15:16:08.428Z,9.73
2022-12-05T15:18:45.849Z,9.13
2022-12-05T15:21:31.511Z,9.30
2022-12-05T15:24:01.371Z,9.47
2022-12-05T15:26:47.727Z,9.13
2022-12-05T15:29:27.050Z,8.83
2022-12-05T15:32:06.385Z,8.80
2022-12-05T15:34:57.898Z,8.27
2022-12-05T15:37:26.249Z,8.07
2022-12-05T15:40:08.404Z,8.80
2022-12-05T15:42:41.468Z,8.87
2022-12-05T15:45:14.842Z,9.00
2022-12-05T15:47:59.491Z,9.63
2022-12-05T15:50:36.083Z,9.37
2022-12-05T15:53:27.339Z,9.10
2022-12-05T15:55:55.471Z,10.33
2022-12-05T15:58:26.196Z,10.63
2022-12-05T16:01:14.741Z,10.30
2022-12-05T16:03:51.041Z,11.63
2022-12-05T16:06:23.705Z,10.90
2022-12-05T16:08:51.862Z,10.80
2022-12-05T16:11:18.823Z,10.97
2022-12-05T16:13:49.464Z,11.03
2022-12-05T16:16:23.057Z,11.23
2022-12-05T16:18:56.847Z,12.20
2022-12-05T16:21:39.257Z,11.20
2022-12-05T16:24:18.011Z,10.70
2022-12-05T16:27:00.650Z,10.17
2022-12-05T16:29:33.016Z,9.83
2022-12-05T16:32:02.983Z,10.97
2022-12-05T16:34:33.413Z,9.13
2022-12-05T16:37:00.988Z,8.93
2022-12-05T16:39:29.122Z,8.17
2022-12-05T16:41:56.364Z,9.03
2022-12-05T16:44:29.015Z,9.23
2022-12-05T16:46:56.801Z,9.07
2022-12-05T16:49:34.447Z,9.03
2022-12-05T16:52:11.720Z,9.80
2022-12-05T16:54:38.624Z,10.37
2022-12-05T16:57:05.947Z,10.57
2022-12-05T16:59:35.612Z,11.47
2022-12-05T17:02:04.743Z,10.47
2022-12-05T17:04:32.000Z,9.90
2022-12-05T17:06:59.136Z,11.50
2022-12-05T17:09:26.023Z,9.93
2022-12-05T17:11:56.036Z,10.60
2022-12-05T17:14:22.839Z,9.90
2022-12-05T17:16:49.751Z,11.17
2022-12-05T17:19:16.545Z,11.70
2022-12-05T17:21:43.737Z,11.67
2022-12-05T17:24:17.587Z,12.20
2022-12-05T17:26:46.341Z,11.57
2022-12-05T17:29:13.396Z,10.97
2022-12-05T17:31:40.602Z,12.93
2022-12-05T17:34:17.230Z,11.83
2022-12-05T17:36:45.845Z,11.00
2022-12-05T17:39:12.900Z,11.63
2022-12-05T17:41:40.422Z,10.57
2022-12-05T17:44:07.845Z,10.93
2022-12-05T17:46:34.975Z,10.77
2022-12-05T17:49:02.533Z,11.00
2022-12-05T17:51:30.556Z,10.90
2022-12-05T17:53:57.677Z,12.43
2022-12-05T17:56:24.814Z,12.80
2022-12-05T17:58:51.937Z,14.00
2022-12-05T18:01:20.067Z,13.80
2022-12-05T18:03:48.507Z,15.37
2022-12-05T18:06:16.055Z,14.60
2022-12-05T18:08:45.462Z,14.23
2022-12-05T18:11:15.860Z,14.57
2022-12-05T18:13:43.220Z,13.93
2022-12-05T18:16:10.418Z,15.97
2022-12-05T18:18:37.333Z,13.90
2022-12-05T18:21:14.275Z,14.43
2022-12-05T18:23:42.133Z,17.87
2022-12-05T18:26:11.494Z,15.23
2022-12-05T18:28:39.446Z,15.07
2022-12-05T18:31:15.469Z,13.20
2022-12-05T18:33:44.201Z,12.97
2022-12-05T18:36:15.594Z,12.17
2022-12-05T18:38:45.534Z,12.10
2022-12-05T18:41:13.040Z,10.60
2022-12-05T18:43:40.416Z,10.73
2022-12-05T18:46:07.735Z,11.37
2022-12-05T18:48:40.826Z,11.40
2022-12-05T18:51:13.549Z,11.30
2022-12-05T18:53:41.368Z,11.57
2022-12-05T18:56:26.835Z,12.10
2022-12-05T18:58:55.232Z,11.73
2022-12-05T19:01:22.491Z,10.70
2022-12-05T19:03:50.489Z,11.00
2022-12-05T19:06:23.514Z,10.27
2022-12-05T19:08:57.404Z,10.33
2022-12-05T19:11:28.528Z,9.10
2022-12-05T19:13:57.059Z,10.67
2022-12-05T19:16:25.299Z,10.57
2022-12-05T19:18:57.841Z,10.70
2022-12-05T19:21:25.849Z,9.60
2022-12-05T19:23:53.127Z,10.13
2022-12-05T19:26:20.462Z,10.63
2022-12-05T19:28:48.086Z,10.27
2022-12-05T19:31:17.831Z,10.40
2022-12-05T19:33:48.126Z,9.97
2022-12-05T19:36:18.073Z,10.43
2022-12-05T19:38:46.844Z,9.90
2022-12-05T19:41:16.207Z,10.33
2022-12-05T19:43:44.885Z,9.87
2022-12-05T19:46:16.071Z,9.30
2022-12-05T19:48:43.731Z,9.63
2022-12-05T19:51:12.057Z,9.53
2022-12-05T19:53:41.361Z,9.70
2022-12-05T19:56:21.679Z,8.00
2022-12-05T19:58:50.371Z,8.47
2022-12-05T20:01:20.462Z,7.63
2022-12-05T20:03:51.153Z,7.53
2022-12-05T20:06:19.480Z,8.43
2022-12-05T20:08:47.432Z,8.17
2022-12-05T20:11:18.528Z,7.90
2022-12-05T20:13:47.344Z,8.80
2022-12-05T20:16:18.871Z,8.73
2022-12-05T20:18:46.463Z,9.03
2022-12-05T20:21:19.551Z,8.90
2022-12-05T20:23:47.012Z,8.57
2022-12-05T20:26:16.897Z,8.60
2022-12-05T20:28:44.355Z,8.77
2022-12-05T20:31:16.575Z,7.83
2022-12-05T20:33:44.326Z,8.63
2022-12-05T20:36:23.813Z,10.40
2022-12-05T20:39:02.071Z,8.23
2022-12-05T20:41:29.029Z,8.87
2022-12-05T20:43:59.613Z,9.23
2022-12-05T20:46:28.242Z,9.37
2022-12-05T20:48:56.641Z,9.10
2022-12-05T20:51:26.905Z,8.83
2022-12-05T20:53:54.052Z,8.97
2022-12-05T20:56:28.485Z,9.00
2022-12-05T20:58:58.116Z,8.73
2022-12-05T21:01:26.183Z,9.23
2022-12-05T21:03:54.880Z,9.33
2022-12-05T21:06:31.050Z,8.70
2022-12-05T21:08:59.202Z,9.67
2022-12-05T21:11:29.922Z,9.00
2022-12-05T21:14:00.417Z,9.07
2022-12-05T21:16:29.078Z,10.03
2022-12-05T21:18:56.478Z,10.67
2022-12-05T21:21:25.775Z,10.17
2022-12-05T21:23:57.838Z,8.50
2022-12-05T21:26:28.304Z,9.63
2022-12-05T21:28:56.427Z,8.77
2022-12-05T21:31:30.620Z,8.57
2022-12-05T21:34:02.477Z,9.57
2022-12-05T21:36:31.225Z,8.80
2022-12-05T21:38:59.618Z,9.33
2022-12-05T21:41:27.149Z,10.07
2022-12-05T21:43:55.750Z,9.23
2022-12-05T21:46:24.286Z,9.60
2022-12-05T21:48:51.256Z,10.43
2022-12-05T21:51:18.793Z,9.70
2022-12-05T21:53:45.849Z,10.20
2022-12-05T21:56:15.966Z,9.47
2022-12-05T21:58:44.245Z,9.30
2022-12-05T22:01:17.668Z,8.77
2022-12-05T22:03:45.247Z,9.43
2022-12-05T22:06:15.306Z,9.20
2022-12-05T22:08:42.832Z,8.87
2022-12-05T22:11:15.171Z,9.60
2022-12-05T22:13:42.736Z,10.13
2022-12-05T22:16:10.315Z,10.70
2022-12-05T22:18:37.672Z,10.27
2022-12-05T22:21:06.804Z,10.23
2022-12-05T22:23:34.930Z,9.90
2022-12-05T22:26:10.372Z,10.00
2022-12-05T22:28:38.552Z,8.87
2022-12-05T22:31:08.351Z,8.30
2022-12-05T22:33:36.900Z,8.80
2022-12-05T22:36:09.280Z,9.10
2022-12-05T22:38:39.069Z,8.47
2022-12-05T22:41:14.751Z,9.67
2022-12-05T22:43:43.336Z,9.17
2022-12-05T22:46:17.553Z,9.10
2022-12-05T22:48:48.388Z,9.23
2022-12-05T22:51:16.291Z,9.33
2022-12-05T22:53:43.474Z,9.33
2022-12-05T22:56:13.531Z,9.83
2022-12-05T22:58:41.064Z,9.77
2022-12-05T23:01:22.844Z,8.63
2022-12-05T23:03:53.957Z,9.77
2022-12-05T23:06:21.031Z,10.57
2022-12-05T23:08:49.071Z,9.87
2022-12-05T23:11:17.947Z,9.83
2022-12-05T23:13:45.716Z,9.83
2022-12-05T23:16:23.319Z,9.83
2022-12-05T23:18:53.705Z,9.33
2022-12-05T23:21:26.831Z,9.17
2022-12-05T23:23:56.513Z,10.60
2022-12-05T23:26:26.426Z,9.37
2022-12-05T23:28:53.769Z,9.03
2022-12-05T23:31:22.243Z,8.67
2022-12-05T23:33:51.593Z,9.03
2022-12-05T23:36:19.659Z,9.10
2022-12-05T23:38:47.383Z,9.00
2022-12-05T23:41:19.739Z,8.83
2022-12-05T23:43:48.207Z,9.10
2022-12-05T23:46:17.248Z,8.40
2022-12-05T23:48:44.697Z,8.53
2022-12-05T23:51:15.132Z,8.90
2022-12-05T23:53:43.812Z,8.97
2022-12-05T23:56:15.973Z,9.30
2022-12-05T23:58:44.618Z,9.53
